Terminal Aerodrome Forecast
Issued by NWS

Home | Current Version | Previous Version | Text Only | Print | Product List | Glossary On
Versions: 1 2 3 4 5 6 7 8 9 10 11 12 13 14 15 16 17 18 19 20 21 22 23
000
FTUS42 KJAX 252333
TAFVQQ
TAF
KVQQ 252333Z 2600/2624 27007KT P6SM SCT050 BKN080
     FM260300 31009G15KT P6SM FEW050 FEW080
     FM260900 34005KT P6SM SKC
     FM261500 01007KT P6SM SKC=

USA.gov is the U.S. government's official web portal to all federal, state and local government web resources and services.